Calico Basin, Nevada
Current Conditions -  °F | °C
As of 6:56 AM on Thursday 23 Oct 2014 (Local Time) from KHND Reporting Station
Clear Clear  
Wind Chill: 57°   Ceiling: Unl
Heat Index: 57°   Visibility: 10mi
Dew Point: 31°   Wind: 8mph
Humidity: 38%   Direction: 170°S
Pressure: 30.08"   Gusts: NA
Location:  35.8437°N, 115.134°W
Report Text: KHND 231356Z 17007KT 10SM CLR 14/M01 A3008 RMK AO2 T01381005 SLP175
Loading
Personal Weather Stations






























Interactive Weather Map New forecast layout! Learn more

10-Day Weather Forecast

Advertisements
Track Severe Weather on mobile